Flight Track Log - Related Links

Times and Time Zones

All times are in EDT time to prevent confusion due to time zone crossing. See the SWA34 flight status page for this flight to view local times or setup timezone preferences in your user account.

Time Position Orientation Groundspeed Altitude Reporting Facility
EDT Latitude Longitude Course Direction KTS MPH feet Rate Location/Type
Tue 05:19:50 PM 32.8833 -96.9000 North 188 216 2,900  Level Dallas / Fort Worth TRACON
Tue 05:20:51 PM 32.9333 -96.9500 320° Northwest 238 274 5,500 2,462 Climbing Dallas / Fort Worth TRACON
Tue 05:22:43 PM 33.0497 -97.0094 337° Northwest 276 318 10,000 2,407 Climbing Fort Worth Center
Tue 05:23:43 PM 33.1561 -96.9967 North 319 367 12,400 2,500 Climbing Fort Worth Center
Tue 05:24:43 PM 33.2461 -96.9861 North 353 406 15,000 2,500 Climbing Fort Worth Center
Tue 05:25:00 PM 33.3623 -96.7576 North  Level FlightAware Approximate
Tue 05:25:43 PM 33.3608 -96.9733 North 373 429 17,400  Level Fort Worth Center
Tue 05:26:43 PM 33.4650 -96.9553 North 378 435 19,900 2,150 Climbing Fort Worth Center
Tue 05:27:43 PM 33.5714 -96.9150 18° North 386 444 21,700 1,700 Climbing Fort Worth Center
Tue 05:28:43 PM 33.6692 -96.8769 18° North 403 464 23,300 1,550 Climbing Fort Worth Center
Tue 05:29:43 PM 33.7942 -96.8286 18° North 411 473 24,800 1,650 Climbing Fort Worth Center
Tue 05:30:43 PM 33.9089 -96.7853 17° North 417 480 26,600 1,550 Climbing Fort Worth Center
Tue 05:31:43 PM 34.0214 -96.7369 20° North 423 487 27,900 1,200 Climbing Fort Worth Center
Tue 05:32:43 PM 34.1214 -96.7011 17° North 423 487 29,000 1,100 Climbing Fort Worth Center
Tue 05:33:43 PM 34.2378 -96.6547 18° North 423 487 30,100 900 Climbing Fort Worth Center
Tue 05:34:43 PM 34.3606 -96.6033 19° North 435 501 30,800 1,050 Climbing Fort Worth Center
Tue 05:35:43 PM 34.4792 -96.5494 21° North 446 513 32,200 1,100 Climbing Fort Worth Center
Tue 05:36:43 PM 34.6019 -96.4978 19° North 451 519 33,000 400 Climbing Fort Worth Center
Tue 05:37:43 PM 34.7247 -96.4433 20° North 457 526 33,000 -50 Level Fort Worth Center
Tue 05:38:43 PM 34.8453 -96.3889 20° North 457 526 32,900 -1,700 Descending Fort Worth Center
Tue 05:39:43 PM 34.9658 -96.3367 20° North 462 532 29,600 -3,300 Descending Fort Worth Center
Tue 05:40:43 PM 35.0883 -96.2819 20° North 467 537 26,300 -3,300 Descending Fort Worth Center
Tue 05:41:43 PM 35.2108 -96.2269 20° North 467 537 23,000 -2,807 Descending Fort Worth Center
Tue 05:43:00 PM 35.3174 -96.1747 22° Northeast  Level FlightAware Approximate
Tue 05:45:38 PM 35.6356 -95.9408 22° Northeast 420 483 12,500  Level Kansas City Center
Tue 05:46:40 PM 35.7206 -95.8581 38° Northeast 392 451 10,600 -1,366 Descending Kansas City Center
Tue 05:47:41 PM 35.8000 -95.7808 38° Northeast 347 399 9,700 -1,210 Descending Kansas City Center
Tue 05:48:39 PM 35.8697 -95.7147 38° Northeast 311 358 8,200 -1,412 Descending Kansas City Center
Tue 05:49:40 PM 35.9419 -95.6511 35° Northeast 312 359 6,900 -732 Descending Kansas City Center
Tue 05:50:00 PM 35.9050 -95.9142 22° Northeast  Level FlightAware Approximate
Tue 05:50:42 PM 36.0061 -95.5936 36° Northeast 288 331 6,700  Level Kansas City Center
Tue 05:51:00 PM 35.9878 -95.8728 22° Northeast  Level FlightAware Approximate
Tue 05:51:42 PM 36.0722 -95.5589 23° Northeast 263 303 5,700  Level Kansas City Center
Tue 05:52:43 PM 36.1342 -95.5944 335° Northwest 216 249 4,200 -1,339 Descending Kansas City Center
Tue 05:53:43 PM 36.1550 -95.6642 290° West 211 243 3,000 -843 Descending Kansas City Center
Tue 05:54:44 PM 36.1728 -95.7239 290° West 174 200 2,500 -246 Descending Kansas City Center
Tue 05:55:45 PM 36.1931 -95.7653 301° West 136 157 2,500 -246 Level Kansas City Center
Tue 05:56:46 PM 36.1975 -95.8164 276° West 152 175 2,000 -492 Descending Kansas City Center

Login

Don't have an account? Register now (free) for customized features, flight alerts, and more!